Time;durP1;ratioP1;P1;durP2;ratioP2;P2;SDS_P1;SDS_P2;PMS_P1;PMS_P2;Temp;Humidity;BMP_temperature;BMP_pressure;BME280_temperature;BME280_humidity;BME280_pressure;Samples;Min_cycle;Max_cycle;Signal;HPM_P1;HPM_P2
2023/08/13 00:00:10;;;;;;;;;;;;;;;23.18;54.92;99887.28;349015;28;1349;-79
2023/08/13 00:00:20;;;;;;;;;;;;;;;23.18;55.20;99876.59;349244;28;1407;-79
2023/08/13 00:00:31;;;;;;;;;;;;;;;23.16;54.77;99878.53;349262;28;1088;-79
2023/08/13 00:00:41;;;;;;;;;;;;;;;23.16;55.18;99881.22;347280;28;1335;-79
2023/08/13 00:00:51;;;;;;;;;;;;;;;23.14;55.10;99880.50;347989;28;1270;-79
2023/08/13 00:01:02;;;;;;;;;;;;;;;23.14;55.11;99886.69;344952;28;1208;-81
2023/08/13 00:01:12;;;;;;;;;;;;;;;23.12;55.12;99874.47;346083;28;995;-80
2023/08/13 00:01:22;;;;;;;;;;;;;;;23.11;55.18;99883.44;351975;28;1298;-80
2023/08/13 00:01:32;;;;;;;;;;;;;;;23.10;55.05;99879.09;347697;28;1365;-80
2023/08/13 00:01:43;;;;;;;;;;;;;;;23.09;55.07;99880.06;350727;28;922;-80
2023/08/13 00:01:53;;;;;;;;;;;;;;;23.10;55.14;99876.41;349200;28;905;-80
2023/08/13 00:02:03;;;;;;;;;;;;;;;23.10;55.64;99879.09;349199;28;835;-80
2023/08/13 00:02:13;;;;;;;;;;;;;;;23.12;55.28;99874.47;348974;28;870;-80
2023/08/13 00:02:24;;;;;;;;;;;;;;;23.11;55.49;99870.09;349336;28;928;-80
2023/08/13 00:02:34;;;;;;;;;;;;;;;23.11;55.29;99880.78;349243;28;753;-80
2023/08/13 00:02:45;;;;;;;;;;;;;;;23.11;55.15;99876.28;349944;28;1225;-80
2023/08/13 00:02:55;;;;;;;;;;;;;;;23.12;55.28;99879.78;346600;28;1346;-80
2023/08/13 00:03:05;;;;;;;;;;;;;;;23.13;55.51;99878.81;348086;28;1248;-80
2023/08/13 00:03:15;;;;;;;;;;;;;;;23.15;55.22;99882.19;346333;28;1315;-80
2023/08/13 00:03:25;;;;;;;;;;;;;;;23.14;55.49;99883.19;346662;28;1509;-80
2023/08/13 00:03:36;;;;;;;;;;;;;;;23.15;55.29;99883.03;345224;28;1330;-80
2023/08/13 00:03:46;;;;;;;;;;;;;;;23.17;55.30;99881.09;346334;28;1300;-80
2023/08/13 00:03:56;;;;;;;;;;;;;;;23.17;55.44;99885.56;346372;28;1426;-80
2023/08/13 00:04:06;;;;;;;;;;;;;;;23.18;54.93;99881.94;346528;28;748;-80
2023/08/13 00:04:17;;;;;;;;;;;;;;;23.18;55.10;99876.59;346919;28;1303;-80
2023/08/13 00:04:27;;;;;;;;;;;;;;;23.19;55.43;99883.63;349071;28;1108;-80
2023/08/13 00:04:37;;;;;;;;;;;;;;;23.20;55.04;99880.81;348446;28;1211;-80
2023/08/13 00:04:48;;;;;;;;;;;;;;;23.20;55.42;99875.47;347723;28;1223;-80
2023/08/13 00:04:58;;;;;;;;;;;;;;;23.23;54.87;99885.03;348476;28;1065;-80
2023/08/13 00:05:09;;;;;;;;;;;;;;;23.23;54.87;99882.38;346105;28;1416;-80
2023/08/13 00:05:19;;;;;;;;;;;;;;;23.25;54.83;99879.56;346496;28;829;-79
2023/08/13 00:05:30;;;;;;;;;;;;;;;23.24;54.84;99886.72;346245;28;1359;-80
2023/08/13 00:05:40;;;;;;;;;;;;;;;23.23;54.87;99879.69;345466;28;1300;-80
2023/08/13 00:05:50;;;;;;;;;;;;;;;23.23;55.00;99877.03;345100;28;1278;-80
2023/08/13 00:06:00;;;;;;;;;;;;;;;23.23;55.13;99888.56;344005;28;1014;-80
2023/08/13 00:06:11;;;;;;;;;;;;;;;23.23;55.03;99885.03;342853;28;1106;-79
2023/08/13 00:06:21;;;;;;;;;;;;;;;23.20;54.82;99880.81;343859;28;1339;-81
2023/08/13 00:06:31;;;;;;;;;;;;;;;23.21;55.22;99881.66;343405;28;1220;-80
2023/08/13 00:06:41;;;;;;;;;;;;;;;23.22;54.89;99875.34;342393;28;2652;-80
2023/08/13 00:06:52;;;;;;;;;;;;;;;23.22;55.14;99884.19;339442;28;3783;-80
2023/08/13 00:07:02;;;;;;;;;;;;;;;23.23;55.18;99882.38;340173;28;2943;-80
2023/08/13 00:07:12;;;;;;;;;;;;;;;23.22;55.25;99886.00;337472;29;1592;-80
2023/08/13 00:07:22;;;;;;;;;;;;;;;23.23;55.27;99880.53;335658;29;1426;-80
2023/08/13 00:07:33;;;;;;;;;;;;;;;23.22;54.87;99878.84;337371;29;1409;-80
2023/08/13 00:07:43;;;;;;;;;;;;;;;23.21;55.05;99882.50;338315;29;1404;-80
2023/08/13 00:07:54;;;;;;;;;;;;;;;23.19;55.18;99878.28;335666;29;1263;-80
2023/08/13 00:08:04;;;;;;;;;;;;;;;23.18;55.23;99881.94;338242;29;1396;-80
2023/08/13 00:08:14;;;;;;;;;;;;;;;23.19;54.95;99886.28;336722;29;1197;-80
2023/08/13 00:08:24;;;;;;;;;;;;;;;23.18;55.46;99879.25;335853;29;1224;-80
2023/08/13 00:08:35;;;;;;;;;;;;;;;23.17;55.28;99878.41;336093;29;1200;-80
2023/08/13 00:08:45;;;;;;;;;;;;;;;23.17;55.37;99880.25;334876;29;1658;-80
2023/08/13 00:08:55;;;;;;;;;;;;;;;23.17;55.38;99880.25;334665;29;1839;-80
2023/08/13 00:09:06;;;;;;;;;;;;;;;23.19;55.50;99888.97;339803;29;881;-80
2023/08/13 00:09:16;;;;;;;;;;;;;;;23.18;55.08;99879.25;336783;29;2023;-80
2023/08/13 00:09:27;;;;;;;;;;;;;;;23.18;55.48;99881.94;335340;29;2257;-80
2023/08/13 00:09:37;;;;;;;;;;;;;;;23.19;55.33;99878.28;334569;29;1207;-80
2023/08/13 00:09:47;;;;;;;;;;;;;;;23.19;55.42;99873.78;336895;29;1554;-80
2023/08/13 00:09:57;;;;;;;;;;;;;;;23.22;55.52;99878.00;337607;29;1212;-80
2023/08/13 00:10:08;;;;;;;;;;;;;;;23.22;55.41;99878.00;335451;29;1328;-79
2023/08/13 00:10:18;;;;;;;;;;;;;;;23.24;55.47;99881.38;334422;29;1211;-79
2023/08/13 00:10:28;;;;;;;;;;;;;;;23.24;55.42;99876.03;335558;29;1505;-79
2023/08/13 00:10:38;;;;;;;;;;;;;;;23.26;55.31;99873.22;334275;29;1973;-79
2023/08/13 00:10:49;;;;;;;;;;;;;;;23.26;55.27;99874.09;334582;29;1211;-79
2023/08/13 00:11:00;;;;;;;;;;;;;;;23.25;55.04;99885.75;332945;29;2504;-79
2023/08/13 00:11:11;;;;;;;;;;;;;;;23.24;55.03;99876.03;332539;29;2553;-79
2023/08/13 00:11:21;;;;;;;;;;;;;;;23.20;55.05;99877.28;337006;29;1369;-79
2023/08/13 00:11:32;;;;;;;;;;;;;;;23.18;55.43;99876.59;335423;29;2702;-79
2023/08/13 00:11:43;;;;;;;;;;;;;;;23.17;55.58;99877.56;336894;29;2616;-79
2023/08/13 00:11:53;;;;;;;;;;;;;;;23.18;55.20;99881.94;337489;29;1939;-79
2023/08/13 00:12:03;;;;;;;;;;;;;;;23.18;55.52;99876.59;337176;29;1330;-80
2023/08/13 00:12:13;;;;;;;;;;;;;;;23.19;55.19;99878.28;336822;29;1527;-80
2023/08/13 00:12:24;;;;;;;;;;;;;;;23.20;55.06;99877.28;334338;29;1825;-80
2023/08/13 00:12:34;;;;;;;;;;;;;;;23.20;55.49;99877.28;334531;29;1231;-81
2023/08/13 00:12:44;;;;;;;;;;;;;;;23.21;55.37;99881.66;333738;29;2686;-81
2023/08/13 00:12:55;;;;;;;;;;;;;;;23.20;55.36;99875.47;331487;29;2644;-81
2023/08/13 00:13:05;;;;;;;;;;;;;;;23.21;55.10;99876.31;329437;30;1398;-81
2023/08/13 00:13:16;;;;;;;;;;;;;;;23.20;55.11;99880.81;328109;29;3386;-81
2023/08/13 00:13:26;;;;;;;;;;;;;;;23.21;55.22;99877.16;327386;29;3317;-80
2023/08/13 00:13:37;;;;;;;;;;;;;;;23.20;55.50;99874.63;325754;30;1377;-80
2023/08/13 00:13:47;;;;;;;;;;;;;;;23.18;55.44;99871.25;323171;30;3383;-80
2023/08/13 00:13:57;;;;;;;;;;;;;;;23.15;55.33;99882.19;324701;29;3321;-80
2023/08/13 00:14:07;;;;;;;;;;;;;;;23.10;55.57;99879.09;321998;30;1467;-82
2023/08/13 00:14:18;;;;;;;;;;;;;;;23.11;55.31;99875.44;316628;31;862;-80
2023/08/13 00:14:28;;;;;;;;;;;;;;;23.10;55.16;99873.75;316584;31;2208;-79
2023/08/13 00:14:39;;;;;;;;;;;;;;;23.12;55.71;99877.13;316887;30;2900;-80
2023/08/13 00:14:49;;;;;;;;;;;;;;;23.12;55.58;99869.97;316567;31;1134;-80
2023/08/13 00:14:59;;;;;;;;;;;;;;;23.15;55.38;99871.50;316161;31;3601;-81
2023/08/13 00:15:10;;;;;;;;;;;;;;;23.14;55.16;99876.00;311073;31;3766;-80
2023/08/13 00:15:20;;;;;;;;;;;;;;;23.12;55.52;99867.28;310830;31;1263;-80
2023/08/13 00:15:30;;;;;;;;;;;;;;;23.12;55.58;99869.13;308010;31;5291;-80
2023/08/13 00:15:41;;;;;;;;;;;;;;;23.12;55.39;99871.78;309810;31;4481;-79
2023/08/13 00:15:51;;;;;;;;;;;;;;;23.13;55.34;99868.13;312086;31;791;-79
2023/08/13 00:16:01;;;;;;;;;;;;;;;23.15;55.50;99871.50;311089;31;4913;-79
2023/08/13 00:16:11;;;;;;;;;;;;;;;23.15;55.58;99874.19;310276;31;4600;-79
2023/08/13 00:16:22;;;;;;;;;;;;;;;23.16;55.33;99870.53;309674;31;3021;-79
2023/08/13 00:16:32;;;;;;;;;;;;;;;23.18;55.61;99873.91;310116;31;3193;-79
2023/08/13 00:16:42;;;;;;;;;;;;;;;23.18;55.23;99869.41;310303;31;3226;-79
2023/08/13 00:16:52;;;;;;;;;;;;;;;23.19;55.21;99870.25;311989;31;1330;-79
2023/08/13 00:17:04;;;;;;;;;;;;;;;23.21;55.41;99876.31;310755;31;1413;-80
2023/08/13 00:17:15;;;;;;;;;;;;;;;23.22;55.22;99872.66;309595;31;5014;-80
2023/08/13 00:17:25;;;;;;;;;;;;;;;23.24;55.00;99865.34;305884;32;5414;-80
2023/08/13 00:17:35;;;;;;;;;;;;;;;23.25;55.48;99872.38;304499;32;805;-80
2023/08/13 00:17:45;;;;;;;;;;;;;;;23.27;55.67;99865.09;305394;32;6947;-80
2023/08/13 00:17:56;;;;;;;;;;;;;;;23.28;55.33;99871.28;304211;32;7628;-80
2023/08/13 00:18:06;;;;;;;;;;;;;;;23.29;55.12;99863.13;303498;32;877;-80
2023/08/13 00:18:16;;;;;;;;;;;;;;;23.30;55.35;99870.16;300174;32;6686;-80
2023/08/13 00:18:28;;;;;;;;;;;;;;;23.32;55.29;99868.19;299398;32;5471;-80
2023/08/13 00:18:38;;;;;;;;;;;;;;;23.33;55.32;99864.53;299016;32;5065;-80
2023/08/13 00:18:48;;;;;;;;;;;;;;;23.34;54.94;99866.22;297673;33;1314;-80
2023/08/13 00:18:58;;;;;;;;;;;;;;;23.35;55.15;99867.91;291453;33;6432;-80
2023/08/13 00:19:09;;;;;;;;;;;;;;;23.35;55.08;99865.25;290518;33;6024;-79
2023/08/13 00:19:19;;;;;;;;;;;;;;;23.33;54.67;99864.53;296177;33;1224;-79
2023/08/13 00:19:29;;;;;;;;;;;;;;;23.31;55.13;99861.16;289814;33;7351;-80
2023/08/13 00:19:40;;;;;;;;;;;;;;;23.30;55.17;99867.47;288643;33;7518;-80
2023/08/13 00:19:50;;;;;;;;;;;;;;;23.29;55.32;99863.13;290243;34;1311;-80
2023/08/13 00:20:00;;;;;;;;;;;;;;;23.29;55.09;99860.44;289442;34;10367;-80
2023/08/13 00:20:11;;;;;;;;;;;;;;;23.26;54.92;99868.75;288612;34;10305;-80
2023/08/13 00:20:21;;;;;;;;;;;;;;;23.26;55.33;99873.22;287484;34;1259;-80
2023/08/13 00:21:59;;;;;;;;;;;;;;;23.25;54.89;99872.38;2500863;27;19937;-78
2023/08/13 00:22:10;;;;;;;;;;;;;;;23.25;55.33;99869.72;354733;27;1403;-78
2023/08/13 00:22:21;;;;;;;;;;;;;;;23.26;55.06;99871.41;353178;28;1284;-78
2023/08/13 00:22:31;;;;;;;;;;;;;;;23.27;54.89;99870.44;353327;28;808;-80
2023/08/13 00:22:42;;;;;;;;;;;;;;;23.28;54.88;99873.94;350597;28;1222;-80
2023/08/13 00:22:52;;;;;;;;;;;;;;;23.28;55.05;99861.44;349282;28;1260;-79
2023/08/13 00:23:02;;;;;;;;;;;;;;;23.29;55.38;99864.94;346867;28;1297;-78
2023/08/13 00:23:12;;;;;;;;;;;;;;;23.29;55.05;99864.94;349125;28;1313;-78
2023/08/13 00:23:23;;;;;;;;;;;;;;;23.29;54.97;99871.13;349118;28;1045;-78
2023/08/13 00:23:35;;;;;;;;;;;;;;;23.29;54.97;99863.13;349194;28;1233;-78
2023/08/13 00:23:45;;;;;;;;;;;;;;;23.28;55.34;99861.44;350622;28;1340;-78
2023/08/13 00:23:56;;;;;;;;;;;;;;;23.27;55.08;99869.59;349123;28;1221;-78
2023/08/13 00:24:06;;;;;;;;;;;;;;;23.24;55.25;99857.34;349258;28;1449;-78
2023/08/13 00:24:16;;;;;;;;;;;;;;;23.23;55.11;99869.00;347736;28;1194;-78
2023/08/13 00:24:26;;;;;;;;;;;;;;;23.20;55.49;99869.28;346998;28;1196;-78
2023/08/13 00:24:37;;;;;;;;;;;;;;;23.19;55.39;99867.59;347659;28;1207;-78
2023/08/13 00:24:47;;;;;;;;;;;;;;;23.18;55.23;99865.91;346499;28;922;-78
2023/08/13 00:24:57;;;;;;;;;;;;;;;23.18;55.37;99866.75;348383;28;1318;-78
2023/08/13 00:25:07;;;;;;;;;;;;;;;23.18;55.32;99876.59;344517;28;2282;-80
2023/08/13 00:25:18;;;;;;;;;;;;;;;23.19;55.42;99867.59;344977;28;4562;-80
2023/08/13 00:25:28;;;;;;;;;;;;;;;23.19;55.53;99867.59;346518;28;3101;-79
2023/08/13 00:25:38;;;;;;;;;;;;;;;23.19;55.23;99868.44;345634;28;1216;-79
2023/08/13 00:25:48;;;;;;;;;;;;;;;23.18;55.41;99865.91;344798;28;3191;-79
2023/08/13 00:25:59;;;;;;;;;;;;;;;23.16;55.25;99867.88;346470;28;781;-79
2023/08/13 00:26:09;;;;;;;;;;;;;;;23.13;55.54;99868.13;346266;28;871;-79
2023/08/13 00:26:19;;;;;;;;;;;;;;;23.13;55.47;99866.31;343713;28;1402;-79
2023/08/13 00:26:29;;;;;;;;;;;;;;;23.13;55.81;99868.13;342876;28;1358;-79
2023/08/13 00:26:40;;;;;;;;;;;;;;;23.15;55.72;99866.19;342199;28;917;-80
2023/08/13 00:26:51;;;;;;;;;;;;;;;23.16;55.61;99873.22;341121;29;1257;-80
2023/08/13 00:27:01;;;;;;;;;;;;;;;23.16;55.37;99867.88;341675;29;1224;-78
2023/08/13 00:27:11;;;;;;;;;;;;;;;23.15;55.82;99871.50;342255;28;1289;-78
2023/08/13 00:27:21;;;;;;;;;;;;;;;23.16;55.72;99862.53;342698;28;1216;-80
2023/08/13 00:27:32;;;;;;;;;;;;;;;23.16;55.65;99873.22;343781;28;929;-79
2023/08/13 00:27:42;;;;;;;;;;;;;;;23.17;55.39;99869.56;346025;28;846;-79
2023/08/13 00:27:52;;;;;;;;;;;;;;;23.17;55.82;99872.22;343991;28;1219;-79
2023/08/13 00:28:02;;;;;;;;;;;;;;;23.16;55.52;99867.88;343759;28;892;-79
2023/08/13 00:28:13;;;;;;;;;;;;;;;23.13;55.49;99868.13;343289;28;1198;-79
2023/08/13 00:28:23;;;;;;;;;;;;;;;23.12;55.79;99863.78;344052;28;1244;-80
2023/08/13 00:28:33;;;;;;;;;;;;;;;23.12;55.78;99872.63;346369;28;1177;-79
2023/08/13 00:28:44;;;;;;;;;;;;;;;23.14;55.83;99869.81;342768;28;1251;-80
2023/08/13 00:28:54;;;;;;;;;;;;;;;23.11;55.52;99870.94;341670;28;1035;-79
2023/08/13 00:29:04;;;;;;;;;;;;;;;23.07;55.60;99874.88;343675;28;1237;-79
2023/08/13 00:29:14;;;;;;;;;;;;;;;23.07;55.70;99868.69;343653;28;1294;-79
2023/08/13 00:29:25;;;;;;;;;;;;;;;23.07;55.92;99868.69;346351;28;1224;-79
2023/08/13 00:29:37;;;;;;;;;;;;;;;23.05;55.83;99870.63;345024;28;1351;-79
2023/08/13 00:29:47;;;;;;;;;;;;;;;23.05;56.11;99865.28;343799;28;1258;-79
2023/08/13 00:29:58;;;;;;;;;;;;;;;23.08;55.80;99865.03;339706;28;1198;-79
2023/08/13 00:30:09;;;;;;;;;;;;;;;23.09;55.94;99869.38;339367;28;1506;-79
2023/08/13 00:30:20;;;;;;;;;;;;;;;23.09;55.96;99864.88;339874;28;1354;-79
2023/08/13 00:30:30;;;;;;;;;;;;;;;23.10;56.00;99863.06;340932;29;1266;-79
2023/08/13 00:30:40;;;;;;;;;;;;;;;23.10;55.63;99868.41;339059;29;1048;-79
2023/08/13 00:30:50;;;;;;;;;;;;;;;23.10;55.95;99869.25;339691;29;1226;-79
2023/08/13 00:31:00;;;;;;;;;;;;;;;23.10;55.95;99868.41;339727;29;1204;-79
2023/08/13 00:31:11;;;;;;;;;;;;;;;23.10;55.78;99869.25;338866;29;1226;-79
2023/08/13 00:31:21;;;;;;;;;;;;;;;23.12;56.03;99874.47;337019;29;1214;-79
2023/08/13 00:31:32;;;;;;;;;;;;;;;23.12;56.02;99872.63;337111;29;1327;-79
2023/08/13 00:31:42;;;;;;;;;;;;;;;23.13;55.92;99873.47;337177;29;842;-79
2023/08/13 00:31:55;;;;;;;;;;;;;;;23.15;55.62;99876.84;335573;29;1431;-79
2023/08/13 00:32:05;;;;;;;;;;;;;;;23.15;55.99;99868.84;331219;29;1717;-79
2023/08/13 00:32:15;;;;;;;;;;;;;;;23.16;55.48;99873.22;334602;29;1220;-79
2023/08/13 00:32:25;;;;;;;;;;;;;;;23.16;56.11;99874.06;333838;29;1921;-79
2023/08/13 00:32:35;;;;;;;;;;;;;;;23.17;55.70;99869.56;330687;29;1594;-79
2023/08/13 00:32:46;;;;;;;;;;;;;;;23.17;55.96;99869.56;329574;30;1254;-79
2023/08/13 00:32:56;;;;;;;;;;;;;;;23.17;55.64;99869.56;331992;29;1581;-79
2023/08/13 00:33:06;;;;;;;;;;;;;;;23.18;55.44;99871.25;329433;30;1599;-79
2023/08/13 00:33:16;;;;;;;;;;;;;;;23.18;55.86;99873.91;330590;29;1321;-79
2023/08/13 00:33:26;;;;;;;;;;;;;;;23.19;55.45;99873.78;331724;29;1336;-79
2023/08/13 00:33:37;;;;;;;;;;;;;;;23.19;55.54;99872.94;330574;29;1260;-79
2023/08/13 00:33:47;;;;;;;;;;;;;;;23.20;56.10;99870.13;330743;29;1206;-79
2023/08/13 00:33:57;;;;;;;;;;;;;;;23.22;55.85;99880.66;327699;29;1743;-79
2023/08/13 00:34:07;;;;;;;;;;;;;;;23.22;55.64;99872.66;324075;30;1978;-79
2023/08/13 00:34:18;;;;;;;;;;;;;;;23.21;55.47;99871.81;323419;30;1489;-79
2023/08/13 00:34:28;;;;;;;;;;;;;;;23.21;55.49;99870.97;328153;30;2314;-79
2023/08/13 00:34:38;;;;;;;;;;;;;;;23.21;55.90;99877.16;331782;29;2769;-79
2023/08/13 00:34:48;;;;;;;;;;;;;;;23.21;55.71;99870.97;334794;29;1292;-79
2023/08/13 00:34:59;;;;;;;;;;;;;;;23.20;55.92;99875.47;329076;30;875;-79
2023/08/13 00:35:09;;;;;;;;;;;;;;;23.21;55.82;99870.97;328779;29;2220;-79
2023/08/13 00:35:19;;;;;;;;;;;;;;;23.21;55.77;99868.31;325839;30;1695;-79
2023/08/13 00:35:29;;;;;;;;;;;;;;;23.22;55.64;99878.00;327039;30;1241;-79
2023/08/13 00:35:39;;;;;;;;;;;;;;;23.21;55.81;99871.81;326139;30;1233;-79
2023/08/13 00:35:51;;;;;;;;;;;;;;;23.22;55.63;99878.00;322841;30;2107;-79
2023/08/13 00:36:01;;;;;;;;;;;;;;;23.22;56.10;99878.84;321130;30;1343;-79
2023/08/13 00:36:11;;;;;;;;;;;;;;;23.21;55.98;99876.31;321022;30;2295;-79
2023/08/13 00:36:22;;;;;;;;;;;;;;;23.20;55.84;99874.63;316558;30;2797;-79
2023/08/13 00:36:32;;;;;;;;;;;;;;;23.20;56.09;99874.63;312030;31;1221;-79
2023/08/13 00:36:42;;;;;;;;;;;;;;;23.20;55.97;99874.63;313089;31;3161;-79
2023/08/13 00:36:52;;;;;;;;;;;;;;;23.20;55.76;99871.94;313091;31;3461;-79
2023/08/13 00:37:03;;;;;;;;;;;;;;;23.20;55.71;99879.97;313148;31;1274;-79
2023/08/13 00:37:13;;;;;;;;;;;;;;;23.21;56.06;99876.31;311475;31;2910;-79
2023/08/13 00:37:23;;;;;;;;;;;;;;;23.20;56.29;99879.97;309533;31;2976;-79
2023/08/13 00:37:34;;;;;;;;;;;;;;;23.20;55.92;99872.81;310451;31;1215;-79
2023/08/13 00:37:44;;;;;;;;;;;;;;;23.20;55.84;99874.63;314419;31;787;-79
2023/08/13 00:37:54;;;;;;;;;;;;;;;23.21;56.11;99871.81;311599;31;2048;-79
2023/08/13 00:38:04;;;;;;;;;;;;;;;23.21;55.87;99868.31;311423;31;2872;-79
2023/08/13 00:38:14;;;;;;;;;;;;;;;23.22;56.10;99881.53;309784;31;1245;-80
2023/08/13 00:38:25;;;;;;;;;;;;;;;23.24;56.01;99873.38;308729;31;4502;-80
2023/08/13 00:38:35;;;;;;;;;;;;;;;23.24;56.45;99881.38;307137;31;4646;-80
2023/08/13 00:38:45;;;;;;;;;;;;;;;23.23;56.25;99879.69;304469;32;1233;-80
2023/08/13 00:38:55;;;;;;;;;;;;;;;23.23;56.10;99877.03;302412;32;5218;-80
2023/08/13 00:39:06;;;;;;;;;;;;;;;23.25;56.19;99879.56;299676;32;4825;-80
2023/08/13 00:39:16;;;;;;;;;;;;;;;23.25;55.83;99871.53;299878;32;1227;-81
2023/08/13 00:39:26;;;;;;;;;;;;;;;23.24;55.76;99876.03;298464;32;4549;-81
2023/08/13 00:39:36;;;;;;;;;;;;;;;23.25;56.07;99872.38;297425;33;4523;-80
2023/08/13 00:39:47;;;;;;;;;;;;;;;23.26;55.91;99873.22;296665;33;1276;-80
2023/08/13 00:39:57;;;;;;;;;;;;;;;23.26;55.74;99873.22;299200;32;3078;-80
2023/08/13 00:40:09;;;;;;;;;;;;;;;23.27;55.61;99870.44;295571;33;3287;-80
2023/08/13 00:40:20;;;;;;;;;;;;;;;23.26;56.03;99868.75;292666;33;4785;-80
2023/08/13 00:40:30;;;;;;;;;;;;;;;23.28;55.71;99876.63;293981;33;1361;-80
2023/08/13 00:40:40;;;;;;;;;;;;;;;23.28;55.72;99874.78;292391;33;6396;-80
2023/08/13 00:40:50;;;;;;;;;;;;;;;23.28;56.28;99872.13;290242;33;7631;-80
2023/08/13 00:41:01;;;;;;;;;;;;;;;23.28;55.98;99872.13;288631;34;907;-80
2023/08/13 00:41:11;;;;;;;;;;;;;;;23.28;56.06;99868.59;286380;34;8179;-80
2023/08/13 00:41:21;;;;;;;;;;;;;;;23.28;55.68;99872.13;287578;33;6913;-80
2023/08/13 00:41:31;;;;;;;;;;;;;;;23.28;55.80;99874.78;286603;34;1264;-80
2023/08/13 00:41:41;;;;;;;;;;;;;;;23.29;55.57;99878.31;284544;34;5919;-80
2023/08/13 00:41:53;;;;;;;;;;;;;;;23.29;55.74;99873.81;285703;33;6151;-80
2023/08/13 00:42:03;;;;;;;;;;;;;;;23.30;55.44;99877.31;291297;34;1496;-80
2023/08/13 00:42:13;;;;;;;;;;;;;;;23.28;55.71;99865.94;287201;34;4637;-79
2023/08/13 00:42:24;;;;;;;;;;;;;;;23.27;55.59;99873.09;286661;34;6067;-79
2023/08/13 00:42:34;;;;;;;;;;;;;;;23.26;55.83;99871.41;285285;34;7289;-79
2023/08/13 00:42:44;;;;;;;;;;;;;;;23.26;55.81;99873.22;285021;34;841;-79
2023/08/13 00:44:56;;;;;;;;;;;;;;;23.18;56.01;99866.75;2490805;27;19930;-79
2023/08/13 00:45:06;;;;;;;;;;;;;;;23.19;55.93;99871.09;353788;28;1226;-79
2023/08/13 00:45:17;;;;;;;;;;;;;;;23.19;55.51;99873.78;352171;28;966;-78
2023/08/13 00:45:27;;;;;;;;;;;;;;;23.20;55.80;99869.28;350883;28;1001;-78
2023/08/13 00:45:37;;;;;;;;;;;;;;;23.21;55.48;99868.31;350720;28;833;-80
2023/08/13 00:45:47;;;;;;;;;;;;;;;23.21;55.58;99871.81;350501;28;1393;-80
2023/08/13 00:45:58;;;;;;;;;;;;;;;23.22;55.93;99870.00;350426;28;1204;-80
2023/08/13 00:46:08;;;;;;;;;;;;;;;23.23;56.01;99869.84;349187;28;1054;-80
2023/08/13 00:46:18;;;;;;;;;;;;;;;23.22;55.99;99872.66;349045;28;1251;-80
2023/08/13 00:46:29;;;;;;;;;;;;;;;23.21;55.52;99870.97;349295;28;864;-80
2023/08/13 00:46:39;;;;;;;;;;;;;;;23.19;55.80;99872.94;349135;28;785;-80
2023/08/13 00:46:49;;;;;;;;;;;;;;;23.18;56.09;99871.25;349292;28;1498;-80
2023/08/13 00:47:00;;;;;;;;;;;;;;;23.17;55.92;99870.41;350694;28;893;-80
2023/08/13 00:47:10;;;;;;;;;;;;;;;23.17;55.73;99873.06;349024;28;1330;-80
2023/08/13 00:47:20;;;;;;;;;;;;;;;23.18;56.07;99876.59;347751;28;890;-80
2023/08/13 00:47:30;;;;;;;;;;;;;;;23.18;55.73;99871.25;347909;28;1074;-80
2023/08/13 00:47:40;;;;;;;;;;;;;;;23.19;55.85;99872.94;349679;28;1366;-79
2023/08/13 00:47:51;;;;;;;;;;;;;;;23.19;55.93;99878.28;346954;28;1356;-79
2023/08/13 00:48:01;;;;;;;;;;;;;;;23.19;55.63;99872.94;347937;28;1043;-79
2023/08/13 00:48:11;;;;;;;;;;;;;;;23.20;55.70;99872.81;346618;28;1003;-79
2023/08/13 00:48:22;;;;;;;;;;;;;;;23.20;56.08;99874.63;349983;28;1313;-79
2023/08/13 00:48:33;;;;;;;;;;;;;;;23.21;55.87;99877.16;349207;28;785;-79
2023/08/13 00:48:43;;;;;;;;;;;;;;;23.22;55.73;99873.50;347731;28;1348;-79
2023/08/13 00:48:54;;;;;;;;;;;;;;;23.23;56.20;99869.00;347436;28;1363;-79
2023/08/13 00:49:05;;;;;;;;;;;;;;;23.23;56.10;99874.34;349182;28;1738;-80
2023/08/13 00:49:15;;;;;;;;;;;;;;;23.25;55.80;99874.22;350432;28;1126;-80
2023/08/13 00:49:26;;;;;;;;;;;;;;;23.26;55.75;99878.56;349304;28;930;-80
2023/08/13 00:49:36;;;;;;;;;;;;;;;23.26;56.17;99873.22;347155;28;1337;-80
2023/08/13 00:49:46;;;;;;;;;;;;;;;23.26;56.09;99875.91;349200;28;1264;-80
2023/08/13 00:49:56;;;;;;;;;;;;;;;23.27;56.13;99872.25;347197;28;1330;-80
2023/08/13 00:50:07;;;;;;;;;;;;;;;23.27;55.82;99873.09;347916;28;894;-80
2023/08/13 00:50:17;;;;;;;;;;;;;;;23.27;55.91;99878.44;345408;28;1395;-80
2023/08/13 00:50:27;;;;;;;;;;;;;;;23.27;55.96;99870.44;345673;28;1216;-80
2023/08/13 00:50:38;;;;;;;;;;;;;;;23.29;55.88;99879.16;345943;28;1402;-80
2023/08/13 00:50:48;;;;;;;;;;;;;;;23.28;55.75;99872.13;346331;28;1038;-80
2023/08/13 00:50:58;;;;;;;;;;;;;;;23.29;55.90;99876.47;347294;28;1146;-80
2023/08/13 00:51:09;;;;;;;;;;;;;;;23.29;55.80;99868.47;345903;28;1316;-80
2023/08/13 00:51:22;;;;;;;;;;;;;;;23.29;55.86;99878.31;342189;28;1286;-80
2023/08/13 00:51:32;;;;;;;;;;;;;;;23.26;55.96;99878.56;342817;28;1272;-80
2023/08/13 00:51:42;;;;;;;;;;;;;;;23.25;56.24;99876.88;342388;28;914;-80
2023/08/13 00:51:53;;;;;;;;;;;;;;;23.22;55.84;99872.66;341118;28;825;-79
2023/08/13 00:52:03;;;;;;;;;;;;;;;23.21;56.19;99877.16;341069;28;1246;-79
2023/08/13 00:52:13;;;;;;;;;;;;;;;23.21;55.95;99876.31;340987;29;857;-79
2023/08/13 00:52:23;;;;;;;;;;;;;;;23.21;56.11;99873.63;342206;28;1232;-79
2023/08/13 00:52:34;;;;;;;;;;;;;;;23.21;55.87;99878.97;342092;28;1066;-81
2023/08/13 00:52:44;;;;;;;;;;;;;;;23.21;56.38;99876.31;341862;28;1262;-81
2023/08/13 00:52:54;;;;;;;;;;;;;;;23.21;56.26;99877.16;340476;28;1182;-80
2023/08/13 00:53:05;;;;;;;;;;;;;;;23.20;56.19;99870.13;337526;29;1467;-80
2023/08/13 00:53:15;;;;;;;;;;;;;;;23.21;56.51;99873.63;336779;29;2637;-80
2023/08/13 00:53:25;;;;;;;;;;;;;;;23.21;56.51;99876.31;336785;29;2666;-80
2023/08/13 00:53:38;;;;;;;;;;;;;;;23.21;56.11;99873.63;337250;29;1656;-80
2023/08/13 00:53:48;;;;;;;;;;;;;;;23.21;56.62;99876.31;335438;29;1421;-80
2023/08/13 00:53:58;;;;;;;;;;;;;;;23.20;56.57;99879.97;333444;29;1293;-80
2023/08/13 00:54:08;;;;;;;;;;;;;;;23.20;56.53;99874.63;332819;29;1213;-79
2023/08/13 00:54:19;;;;;;;;;;;;;;;23.19;56.62;99873.78;334576;29;1122;-79
2023/08/13 00:54:29;;;;;;;;;;;;;;;23.19;56.76;99878.28;337192;29;1341;-79
2023/08/13 00:54:40;;;;;;;;;;;;;;;23.19;56.73;99872.94;334467;29;1262;-80
2023/08/13 00:54:50;;;;;;;;;;;;;;;23.19;56.63;99878.28;336220;29;1348;-80
2023/08/13 00:55:00;;;;;;;;;;;;;;;23.20;56.87;99874.63;335805;29;1263;-79
2023/08/13 00:55:11;;;;;;;;;;;;;;;23.20;57.04;99871.94;328709;29;1226;-80
2023/08/13 00:55:21;;;;;;;;;;;;;;;23.20;56.88;99874.63;329084;29;1859;-80
2023/08/13 00:55:32;;;;;;;;;;;;;;;23.21;56.69;99876.31;329574;29;1983;-80
2023/08/13 00:55:42;;;;;;;;;;;;;;;23.19;57.54;99878.28;331043;29;1035;-80
2023/08/13 00:55:52;;;;;;;;;;;;;;;23.17;57.51;99874.91;333888;29;2169;-80
2023/08/13 00:56:03;;;;;;;;;;;;;;;23.16;57.67;99870.53;336029;29;1710;-80
2023/08/13 00:56:13;;;;;;;;;;;;;;;23.16;57.60;99875.88;338285;29;1284;-81
2023/08/13 00:56:23;;;;;;;;;;;;;;;23.16;57.41;99874.06;335776;29;869;-81
2023/08/13 00:56:36;;;;;;;;;;;;;;;23.16;57.18;99878.53;337048;29;1455;-80
2023/08/13 00:56:47;;;;;;;;;;;;;;;23.16;57.23;99878.53;335678;29;1785;-80
2023/08/13 00:56:57;;;;;;;;;;;;;;;23.16;57.77;99879.38;337158;29;933;-80
2023/08/13 00:57:07;;;;;;;;;;;;;;;23.16;57.53;99878.53;335383;29;2143;-80
2023/08/13 00:57:17;;;;;;;;;;;;;;;23.16;57.68;99878.53;330736;29;2409;-80
2023/08/13 00:57:28;;;;;;;;;;;;;;;23.16;57.65;99873.22;329579;30;1317;-80
2023/08/13 00:57:38;;;;;;;;;;;;;;;23.16;58.01;99878.53;332154;29;2348;-80
2023/08/13 00:57:48;;;;;;;;;;;;;;;23.15;58.14;99872.34;330235;29;2730;-80
2023/08/13 00:57:59;;;;;;;;;;;;;;;23.15;57.89;99872.34;328223;30;1304;-80
2023/08/13 00:58:09;;;;;;;;;;;;;;;23.14;57.85;99872.50;328784;30;2676;-80
2023/08/13 00:58:19;;;;;;;;;;;;;;;23.14;58.15;99875.16;330250;29;1674;-79
2023/08/13 00:58:29;;;;;;;;;;;;;;;23.14;58.05;99877.84;329119;30;1063;-79
2023/08/13 00:58:40;;;;;;;;;;;;;;;23.15;58.05;99885.72;329365;30;1748;-79
2023/08/13 00:58:50;;;;;;;;;;;;;;;23.15;58.09;99874.19;327683;29;1744;-79
2023/08/13 00:59:01;;;;;;;;;;;;;;;23.14;58.18;99869.81;324601;30;2528;-79